sensor_id;sensor_type;location;lat;lon;timestamp;temperature;humidity
18868;DHT22;9563;49.240;9.088;2024-03-23T05:02:22;11.80;99.90
18868;DHT22;9563;49.240;9.088;2024-03-23T05:04:51;11.80;99.90
18868;DHT22;9563;49.240;9.088;2024-03-23T05:07:16;11.70;99.90
18868;DHT22;9563;49.240;9.088;2024-03-23T05:09:43;11.70;99.90
18868;DHT22;9563;49.240;9.088;2024-03-23T05:12:09;11.70;99.90
18868;DHT22;9563;49.240;9.088;2024-03-23T05:14:36;11.60;99.90
18868;DHT22;9563;49.240;9.088;2024-03-23T05:17:02;11.60;99.90
18868;DHT22;9563;49.240;9.088;2024-03-23T05:19:31;11.40;99.90
18868;DHT22;9563;49.240;9.088;2024-03-23T05:21:57;11.40;99.90
18868;DHT22;9563;49.240;9.088;2024-03-23T05:24:25;11.30;99.90
18868;DHT22;9563;49.240;9.088;2024-03-23T05:26:50;11.20;99.90
18868;DHT22;9563;49.240;9.088;2024-03-23T05:29:17;11.10;99.90
18868;DHT22;9563;49.240;9.088;2024-03-23T05:31:43;11.20;99.90
18868;DHT22;9563;49.240;9.088;2024-03-23T05:34:10;11.10;99.90
18868;DHT22;9563;49.240;9.088;2024-03-23T05:36:37;11.10;99.90
18868;DHT22;9563;49.240;9.088;2024-03-23T05:39:04;11.10;99.90
18868;DHT22;9563;49.240;9.088;2024-03-23T05:41:30;11.00;99.90
18868;DHT22;9563;49.240;9.088;2024-03-23T05:43:57;10.90;99.90
18868;DHT22;9563;49.240;9.088;2024-03-23T05:46:22;10.80;99.90
18868;DHT22;9563;49.240;9.088;2024-03-23T05:48:50;10.80;99.90
18868;DHT22;9563;49.240;9.088;2024-03-23T05:51:16;10.80;99.90
18868;DHT22;9563;49.240;9.088;2024-03-23T05:53:45;10.70;99.90
18868;DHT22;9563;49.240;9.088;2024-03-23T05:56:10;10.60;99.90
18868;DHT22;9563;49.240;9.088;2024-03-23T05:58:37;10.60;99.90
18868;DHT22;9563;49.240;9.088;2024-03-23T06:01:03;10.50;99.90
18868;DHT22;9563;49.240;9.088;2024-03-23T06:03:30;10.50;99.90
18868;DHT22;9563;49.240;9.088;2024-03-23T06:05:56;10.40;99.90
18868;DHT22;9563;49.240;9.088;2024-03-23T06:08:23;10.40;99.90
18868;DHT22;9563;49.240;9.088;2024-03-23T06:10:51;10.30;99.90
18868;DHT22;9563;49.240;9.088;2024-03-23T06:13:17;10.30;99.90
18868;DHT22;9563;49.240;9.088;2024-03-23T06:15:44;10.30;99.90
18868;DHT22;9563;49.240;9.088;2024-03-23T06:18:12;10.30;99.90
18868;DHT22;9563;49.240;9.088;2024-03-23T06:20:37;10.20;99.90
18868;DHT22;9563;49.240;9.088;2024-03-23T06:23:04;10.20;99.90
18868;DHT22;9563;49.240;9.088;2024-03-23T06:25:30;10.20;99.90
18868;DHT22;9563;49.240;9.088;2024-03-23T06:27:58;10.20;99.90
18868;DHT22;9563;49.240;9.088;2024-03-23T06:30:24;10.20;99.90
18868;DHT22;9563;49.240;9.088;2024-03-23T06:32:52;10.20;99.90
18868;DHT22;9563;49.240;9.088;2024-03-23T06:35:18;9.90;99.90
18868;DHT22;9563;49.240;9.088;2024-03-23T06:37:45;9.50;99.90
18868;DHT22;9563;49.240;9.088;2024-03-23T06:40:11;9.30;99.90
18868;DHT22;9563;49.240;9.088;2024-03-23T06:42:38;9.10;99.90
18868;DHT22;9563;49.240;9.088;2024-03-23T06:45:06;9.10;99.90
18868;DHT22;9563;49.240;9.088;2024-03-23T06:47:33;9.00;99.90
18868;DHT22;9563;49.240;9.088;2024-03-23T06:49:59;8.90;99.90
18868;DHT22;9563;49.240;9.088;2024-03-23T06:52:28;8.80;99.90
18868;DHT22;9563;49.240;9.088;2024-03-23T06:54:54;8.80;99.90
18868;DHT22;9563;49.240;9.088;2024-03-23T06:57:21;8.80;99.90
18868;DHT22;9563;49.240;9.088;2024-03-23T06:59:47;8.70;99.90
18868;DHT22;9563;49.240;9.088;2024-03-23T07:02:15;8.60;99.90
18868;DHT22;9563;49.240;9.088;2024-03-23T07:04:41;8.60;99.90
18868;DHT22;9563;49.240;9.088;2024-03-23T07:07:08;8.60;99.90
18868;DHT22;9563;49.240;9.088;2024-03-23T07:09:34;8.70;99.90
18868;DHT22;9563;49.240;9.088;2024-03-23T07:12:01;8.70;99.90
18868;DHT22;9563;49.240;9.088;2024-03-23T07:14:26;8.70;99.90
18868;DHT22;9563;49.240;9.088;2024-03-23T07:16:53;8.70;99.90
18868;DHT22;9563;49.240;9.088;2024-03-23T07:19:20;8.80;99.90
18868;DHT22;9563;49.240;9.088;2024-03-23T07:21:47;8.80;99.90
18868;DHT22;9563;49.240;9.088;2024-03-23T07:24:13;8.80;99.90
18868;DHT22;9563;49.240;9.088;2024-03-23T07:26:40;8.90;99.90
18868;DHT22;9563;49.240;9.088;2024-03-23T07:29:07;8.90;99.90
18868;DHT22;9563;49.240;9.088;2024-03-23T07:31:34;9.20;99.90
18868;DHT22;9563;49.240;9.088;2024-03-23T07:33:59;9.50;99.90
18868;DHT22;9563;49.240;9.088;2024-03-23T07:36:28;9.50;99.90
18868;DHT22;9563;49.240;9.088;2024-03-23T07:38:53;9.80;99.90
18868;DHT22;9563;49.240;9.088;2024-03-23T07:41:21;9.80;99.90
18868;DHT22;9563;49.240;9.088;2024-03-23T07:43:47;9.80;99.90
18868;DHT22;9563;49.240;9.088;2024-03-23T07:46:15;9.70;99.90
18868;DHT22;9563;49.240;9.088;2024-03-23T07:48:41;9.60;99.90
18868;DHT22;9563;49.240;9.088;2024-03-23T07:51:09;9.50;99.90
18868;DHT22;9563;49.240;9.088;2024-03-23T07:53:37;9.70;99.90
18868;DHT22;9563;49.240;9.088;2024-03-23T07:56:06;9.70;99.90
18868;DHT22;9563;49.240;9.088;2024-03-23T07:58:32;9.80;99.90
18868;DHT22;9563;49.240;9.088;2024-03-23T08:01:04;9.80;99.90
18868;DHT22;9563;49.240;9.088;2024-03-23T08:03:30;9.70;99.90
18868;DHT22;9563;49.240;9.088;2024-03-23T08:05:57;9.80;99.90
18868;DHT22;9563;49.240;9.088;2024-03-23T08:08:23;10.10;99.90
18868;DHT22;9563;49.240;9.088;2024-03-23T08:10:52;10.10;99.90
18868;DHT22;9563;49.240;9.088;2024-03-23T08:13:18;10.00;99.90
18868;DHT22;9563;49.240;9.088;2024-03-23T08:15:45;9.90;99.90
18868;DHT22;9563;49.240;9.088;2024-03-23T08:18:13;10.00;99.90
18868;DHT22;9563;49.240;9.088;2024-03-23T08:20:41;10.10;99.90
18868;DHT22;9563;49.240;9.088;2024-03-23T08:23:08;10.20;99.90
18868;DHT22;9563;49.240;9.088;2024-03-23T08:25:34;10.30;99.90
18868;DHT22;9563;49.240;9.088;2024-03-23T08:28:03;10.40;99.90
18868;DHT22;9563;49.240;9.088;2024-03-23T08:30:29;10.80;99.90
18868;DHT22;9563;49.240;9.088;2024-03-23T08:32:56;10.80;99.90
18868;DHT22;9563;49.240;9.088;2024-03-23T08:35:22;10.60;99.90
18868;DHT22;9563;49.240;9.088;2024-03-23T08:37:49;10.20;99.90
18868;DHT22;9563;49.240;9.088;2024-03-23T08:40:17;10.00;99.90
18868;DHT22;9563;49.240;9.088;2024-03-23T08:42:44;9.80;99.90
18868;DHT22;9563;49.240;9.088;2024-03-23T08:45:12;9.80;99.90
18868;DHT22;9563;49.240;9.088;2024-03-23T08:47:39;9.80;99.90
18868;DHT22;9563;49.240;9.088;2024-03-23T08:50:05;9.90;99.90
18868;DHT22;9563;49.240;9.088;2024-03-23T08:52:32;10.00;99.90
18868;DHT22;9563;49.240;9.088;2024-03-23T08:54:58;10.30;99.90
18868;DHT22;9563;49.240;9.088;2024-03-23T08:57:25;10.70;99.90
18868;DHT22;9563;49.240;9.088;2024-03-23T08:59:51;10.70;99.90
18868;DHT22;9563;49.240;9.088;2024-03-23T09:02:20;10.60;99.90
18868;DHT22;9563;49.240;9.088;2024-03-23T09:04:45;11.10;99.90
18868;DHT22;9563;49.240;9.088;2024-03-23T09:07:12;11.80;99.90
18868;DHT22;9563;49.240;9.088;2024-03-23T09:09:38;12.40;99.90
18868;DHT22;9563;49.240;9.088;2024-03-23T09:12:06;12.80;99.90
18868;DHT22;9563;49.240;9.088;2024-03-23T09:14:32;12.90;99.90
18868;DHT22;9563;49.240;9.088;2024-03-23T09:16:59;13.20;99.90
18868;DHT22;9563;49.240;9.088;2024-03-23T09:19:28;13.80;99.90
18868;DHT22;9563;49.240;9.088;2024-03-23T09:21:55;14.00;99.90
18868;DHT22;9563;49.240;9.088;2024-03-23T09:24:21;14.20;99.90
18868;DHT22;9563;49.240;9.088;2024-03-23T09:26:48;13.90;99.90
18868;DHT22;9563;49.240;9.088;2024-03-23T09:29:14;14.40;99.90
18868;DHT22;9563;49.240;9.088;2024-03-23T09:31:42;14.70;99.90
18868;DHT22;9563;49.240;9.088;2024-03-23T09:34:08;14.80;99.90
18868;DHT22;9563;49.240;9.088;2024-03-23T09:36:36;14.30;99.90
18868;DHT22;9563;49.240;9.088;2024-03-23T09:39:02;13.80;99.90
18868;DHT22;9563;49.240;9.088;2024-03-23T09:41:31;13.10;99.90
18868;DHT22;9563;49.240;9.088;2024-03-23T09:43:57;12.80;99.90
18868;DHT22;9563;49.240;9.088;2024-03-23T09:46:24;12.40;99.90
18868;DHT22;9563;49.240;9.088;2024-03-23T09:48:50;12.50;99.90
18868;DHT22;9563;49.240;9.088;2024-03-23T09:51:17;12.40;99.90
18868;DHT22;9563;49.240;9.088;2024-03-23T09:53:44;12.30;99.90
18868;DHT22;9563;49.240;9.088;2024-03-23T09:56:11;11.90;99.90
18868;DHT22;9563;49.240;9.088;2024-03-23T09:58:37;11.70;99.90
18868;DHT22;9563;49.240;9.088;2024-03-23T10:01:04;11.70;99.90
18868;DHT22;9563;49.240;9.088;2024-03-23T10:03:30;11.90;99.90
18868;DHT22;9563;49.240;9.088;2024-03-23T10:06:03;11.90;99.90
18868;DHT22;9563;49.240;9.088;2024-03-23T10:08:30;11.50;99.90
18868;DHT22;9563;49.240;9.088;2024-03-23T10:11:13;11.50;99.90
18868;DHT22;9563;49.240;9.088;2024-03-23T10:13:41;11.40;99.90
18868;DHT22;9563;49.240;9.088;2024-03-23T10:16:09;11.30;99.90
18868;DHT22;9563;49.240;9.088;2024-03-23T10:18:37;11.10;99.90
18868;DHT22;9563;49.240;9.088;2024-03-23T10:21:08;11.00;99.90
18868;DHT22;9563;49.240;9.088;2024-03-23T10:23:35;10.80;99.90
18868;DHT22;9563;49.240;9.088;2024-03-23T10:26:17;10.70;99.90
18868;DHT22;9563;49.240;9.088;2024-03-23T10:28:51;10.70;99.90
18868;DHT22;9563;49.240;9.088;2024-03-23T10:31:18;10.60;99.90
18868;DHT22;9563;49.240;9.088;2024-03-23T10:33:45;10.50;99.90
18868;DHT22;9563;49.240;9.088;2024-03-23T10:36:12;10.40;99.90
18868;DHT22;9563;49.240;9.088;2024-03-23T10:38:40;10.20;99.90
18868;DHT22;9563;49.240;9.088;2024-03-23T10:41:08;10.20;99.90
18868;DHT22;9563;49.240;9.088;2024-03-23T10:43:36;10.20;99.90
18868;DHT22;9563;49.240;9.088;2024-03-23T10:46:04;10.10;99.90
18868;DHT22;9563;49.240;9.088;2024-03-23T10:48:30;10.10;99.90
18868;DHT22;9563;49.240;9.088;2024-03-23T10:50:57;10.10;99.90
18868;DHT22;9563;49.240;9.088;2024-03-23T10:53:25;10.20;99.90
18868;DHT22;9563;49.240;9.088;2024-03-23T10:55:54;10.20;99.90
18868;DHT22;9563;49.240;9.088;2024-03-23T10:58:23;10.20;99.90
18868;DHT22;9563;49.240;9.088;2024-03-23T11:00:52;10.20;99.90
18868;DHT22;9563;49.240;9.088;2024-03-23T11:03:30;10.60;99.90
18868;DHT22;9563;49.240;9.088;2024-03-23T11:05:57;10.80;99.90
18868;DHT22;9563;49.240;9.088;2024-03-23T11:08:33;10.90;99.90
18868;DHT22;9563;49.240;9.088;2024-03-23T11:11:14;10.80;99.90
18868;DHT22;9563;49.240;9.088;2024-03-23T11:13:42;11.10;99.90
18868;DHT22;9563;49.240;9.088;2024-03-23T11:16:21;11.30;99.90
18868;DHT22;9563;49.240;9.088;2024-03-23T11:18:47;11.60;99.90
18868;DHT22;9563;49.240;9.088;2024-03-23T11:24:14;11.60;99.90
18868;DHT22;9563;49.240;9.088;2024-03-23T11:26:41;12.00;99.90
18868;DHT22;9563;49.240;9.088;2024-03-23T11:29:10;12.40;99.90
18868;DHT22;9563;49.240;9.088;2024-03-23T11:31:38;12.90;99.90
18868;DHT22;9563;49.240;9.088;2024-03-23T11:34:04;12.70;99.90
18868;DHT22;9563;49.240;9.088;2024-03-23T11:36:32;13.40;99.90
18868;DHT22;9563;49.240;9.088;2024-03-23T11:38:58;13.40;99.90
18868;DHT22;9563;49.240;9.088;2024-03-23T11:41:25;12.60;99.90
18868;DHT22;9563;49.240;9.088;2024-03-23T11:43:51;11.70;99.90
18868;DHT22;9563;49.240;9.088;2024-03-23T11:46:22;11.20;99.90
18868;DHT22;9563;49.240;9.088;2024-03-23T11:48:51;10.70;99.90
18868;DHT22;9563;49.240;9.088;2024-03-23T11:51:18;10.90;99.90
18868;DHT22;9563;49.240;9.088;2024-03-23T11:53:44;10.80;99.90
18868;DHT22;9563;49.240;9.088;2024-03-23T11:56:10;10.60;99.90
18868;DHT22;9563;49.240;9.088;2024-03-23T11:58:36;11.30;99.90
18868;DHT22;9563;49.240;9.088;2024-03-23T12:01:04;11.50;99.90
18868;DHT22;9563;49.240;9.088;2024-03-23T12:03:31;11.40;99.90
18868;DHT22;9563;49.240;9.088;2024-03-23T12:06:03;11.20;99.90
18868;DHT22;9563;49.240;9.088;2024-03-23T12:08:30;11.60;99.90
18868;DHT22;9563;49.240;9.088;2024-03-23T12:11:06;12.20;99.90
18868;DHT22;9563;49.240;9.088;2024-03-23T12:13:32;12.30;99.90
18868;DHT22;9563;49.240;9.088;2024-03-23T12:16:09;12.40;99.90
18868;DHT22;9563;49.240;9.088;2024-03-23T12:18:36;12.40;99.90
18868;DHT22;9563;49.240;9.088;2024-03-23T12:21:05;12.60;99.90
18868;DHT22;9563;49.240;9.088;2024-03-23T12:23:30;13.00;99.90
18868;DHT22;9563;49.240;9.088;2024-03-23T12:25:58;12.70;99.90
18868;DHT22;9563;49.240;9.088;2024-03-23T12:28:24;11.90;99.90
18868;DHT22;9563;49.240;9.088;2024-03-23T12:30:51;11.50;99.90
18868;DHT22;9563;49.240;9.088;2024-03-23T12:33:17;11.40;99.90
18868;DHT22;9563;49.240;9.088;2024-03-23T12:35:44;11.60;99.90
18868;DHT22;9563;49.240;9.088;2024-03-23T12:38:11;12.10;99.90
18868;DHT22;9563;49.240;9.088;2024-03-23T12:40:38;11.90;99.90
18868;DHT22;9563;49.240;9.088;2024-03-23T12:43:04;12.00;99.90
18868;DHT22;9563;49.240;9.088;2024-03-23T12:45:31;12.30;99.90
18868;DHT22;9563;49.240;9.088;2024-03-23T12:47:56;11.90;99.80
18868;DHT22;9563;49.240;9.088;2024-03-23T12:50:23;12.10;99.70
18868;DHT22;9563;49.240;9.088;2024-03-23T12:52:49;12.30;99.50
18868;DHT22;9563;49.240;9.088;2024-03-23T12:55:18;12.70;99.90
18868;DHT22;9563;49.240;9.088;2024-03-23T12:57:44;12.20;99.90
18868;DHT22;9563;49.240;9.088;2024-03-23T13:00:11;11.40;99.90
18868;DHT22;9563;49.240;9.088;2024-03-23T13:02:38;11.00;99.90
18868;DHT22;9563;49.240;9.088;2024-03-23T13:05:06;10.40;99.90
18868;DHT22;9563;49.240;9.088;2024-03-23T13:07:33;10.20;99.90
18868;DHT22;9563;49.240;9.088;2024-03-23T13:10:00;10.10;99.90
18868;DHT22;9563;49.240;9.088;2024-03-23T13:12:28;9.90;99.90
18868;DHT22;9563;49.240;9.088;2024-03-23T13:14:55;9.70;99.90
18868;DHT22;9563;49.240;9.088;2024-03-23T13:17:21;9.40;99.90
18868;DHT22;9563;49.240;9.088;2024-03-23T13:19:47;9.10;99.90
18868;DHT22;9563;49.240;9.088;2024-03-23T13:22:13;9.20;99.90
18868;DHT22;9563;49.240;9.088;2024-03-23T13:24:40;9.20;99.90
18868;DHT22;9563;49.240;9.088;2024-03-23T13:27:06;9.40;99.90
18868;DHT22;9563;49.240;9.088;2024-03-23T13:29:35;10.10;99.90
18868;DHT22;9563;49.240;9.088;2024-03-23T13:32:00;10.60;99.90
18868;DHT22;9563;49.240;9.088;2024-03-23T13:34:27;10.70;99.90
18868;DHT22;9563;49.240;9.088;2024-03-23T13:36:55;11.50;99.90
18868;DHT22;9563;49.240;9.088;2024-03-23T13:39:21;11.60;99.90
18868;DHT22;9563;49.240;9.088;2024-03-23T13:41:47;11.60;99.90
18868;DHT22;9563;49.240;9.088;2024-03-23T13:44:14;11.30;99.90
18868;DHT22;9563;49.240;9.088;2024-03-23T13:46:43;10.90;99.90
18868;DHT22;9563;49.240;9.088;2024-03-23T13:49:18;10.30;99.90
18868;DHT22;9563;49.240;9.088;2024-03-23T13:51:49;9.70;99.90
18868;DHT22;9563;49.240;9.088;2024-03-23T13:54:16;8.90;99.90
18868;DHT22;9563;49.240;9.088;2024-03-23T13:56:42;8.10;99.90
18868;DHT22;9563;49.240;9.088;2024-03-23T13:59:09;8.30;99.90
18868;DHT22;9563;49.240;9.088;2024-03-23T14:01:35;8.80;99.90
18868;DHT22;9563;49.240;9.088;2024-03-23T14:04:04;9.60;99.90
18868;DHT22;9563;49.240;9.088;2024-03-23T14:06:30;10.00;99.90
18868;DHT22;9563;49.240;9.088;2024-03-23T14:08:56;10.40;99.90
18868;DHT22;9563;49.240;9.088;2024-03-23T14:11:22;10.70;99.90
18868;DHT22;9563;49.240;9.088;2024-03-23T14:13:52;10.90;99.90
18868;DHT22;9563;49.240;9.088;2024-03-23T14:16:18;10.60;99.90
18868;DHT22;9563;49.240;9.088;2024-03-23T14:18:46;10.30;99.90
18868;DHT22;9563;49.240;9.088;2024-03-23T14:21:13;9.60;99.90
18868;DHT22;9563;49.240;9.088;2024-03-23T14:23:40;9.40;99.90
18868;DHT22;9563;49.240;9.088;2024-03-23T14:26:06;9.40;99.90
18868;DHT22;9563;49.240;9.088;2024-03-23T14:28:33;9.80;99.90
18868;DHT22;9563;49.240;9.088;2024-03-23T14:30:59;10.50;99.90
18868;DHT22;9563;49.240;9.088;2024-03-23T14:33:26;10.70;99.90
18868;DHT22;9563;49.240;9.088;2024-03-23T14:35:53;10.70;99.90
18868;DHT22;9563;49.240;9.088;2024-03-23T14:38:22;10.60;99.90
18868;DHT22;9563;49.240;9.088;2024-03-23T14:40:48;11.00;99.90
18868;DHT22;9563;49.240;9.088;2024-03-23T14:43:16;11.20;99.90
18868;DHT22;9563;49.240;9.088;2024-03-23T14:46:08;11.10;99.90
18868;DHT22;9563;49.240;9.088;2024-03-23T14:48:36;10.60;99.90
18868;DHT22;9563;49.240;9.088;2024-03-23T14:51:02;10.40;99.90
18868;DHT22;9563;49.240;9.088;2024-03-23T14:53:32;10.20;99.90
18868;DHT22;9563;49.240;9.088;2024-03-23T14:55:59;10.10;99.90
18868;DHT22;9563;49.240;9.088;2024-03-23T14:58:26;9.70;99.90
18868;DHT22;9563;49.240;9.088;2024-03-23T15:01:00;9.50;99.90
18868;DHT22;9563;49.240;9.088;2024-03-23T15:03:26;9.40;99.90
18868;DHT22;9563;49.240;9.088;2024-03-23T15:05:53;9.60;99.90
18868;DHT22;9563;49.240;9.088;2024-03-23T15:08:19;9.60;99.90
18868;DHT22;9563;49.240;9.088;2024-03-23T15:10:47;9.30;99.90
18868;DHT22;9563;49.240;9.088;2024-03-23T15:13:13;9.30;99.90
18868;DHT22;9563;49.240;9.088;2024-03-23T15:15:41;9.50;99.90
18868;DHT22;9563;49.240;9.088;2024-03-23T15:18:09;9.50;99.90
18868;DHT22;9563;49.240;9.088;2024-03-23T15:20:38;9.50;99.90
18868;DHT22;9563;49.240;9.088;2024-03-23T15:23:04;9.50;99.90
18868;DHT22;9563;49.240;9.088;2024-03-23T15:25:31;9.40;99.90
18868;DHT22;9563;49.240;9.088;2024-03-23T15:27:58;9.50;99.90
18868;DHT22;9563;49.240;9.088;2024-03-23T15:30:25;9.60;99.90
18868;DHT22;9563;49.240;9.088;2024-03-23T15:32:51;9.50;99.90
18868;DHT22;9563;49.240;9.088;2024-03-23T15:35:19;9.30;99.90
18868;DHT22;9563;49.240;9.088;2024-03-23T15:37:46;9.20;99.90
18868;DHT22;9563;49.240;9.088;2024-03-23T15:40:13;9.20;99.90
18868;DHT22;9563;49.240;9.088;2024-03-23T15:42:38;9.40;99.90
18868;DHT22;9563;49.240;9.088;2024-03-23T15:45:08;9.40;99.90
18868;DHT22;9563;49.240;9.088;2024-03-23T15:47:35;9.40;99.90
18868;DHT22;9563;49.240;9.088;2024-03-23T15:50:02;9.40;99.90
18868;DHT22;9563;49.240;9.088;2024-03-23T15:52:33;9.40;99.90
18868;DHT22;9563;49.240;9.088;2024-03-23T15:55:00;9.50;99.90
18868;DHT22;9563;49.240;9.088;2024-03-23T15:57:26;9.50;99.90
18868;DHT22;9563;49.240;9.088;2024-03-23T15:59:53;9.20;99.90
18868;DHT22;9563;49.240;9.088;2024-03-23T16:02:20;9.10;99.90
18868;DHT22;9563;49.240;9.088;2024-03-23T16:04:47;9.00;99.90
18868;DHT22;9563;49.240;9.088;2024-03-23T16:07:13;8.70;99.90
18868;DHT22;9563;49.240;9.088;2024-03-23T16:09:40;8.40;99.90
18868;DHT22;9563;49.240;9.088;2024-03-23T16:12:05;8.30;99.90
18868;DHT22;9563;49.240;9.088;2024-03-23T16:14:32;8.10;99.90
18868;DHT22;9563;49.240;9.088;2024-03-23T16:16:58;8.00;99.90
18868;DHT22;9563;49.240;9.088;2024-03-23T16:19:27;7.90;99.90
18868;DHT22;9563;49.240;9.088;2024-03-23T16:21:52;7.90;99.90
18868;DHT22;9563;49.240;9.088;2024-03-23T16:24:20;7.90;99.90
18868;DHT22;9563;49.240;9.088;2024-03-23T16:26:46;7.90;99.90
18868;DHT22;9563;49.240;9.088;2024-03-23T16:29:14;7.90;99.90
18868;DHT22;9563;49.240;9.088;2024-03-23T16:31:41;7.80;99.90
18868;DHT22;9563;49.240;9.088;2024-03-23T16:34:08;7.50;99.90
18868;DHT22;9563;49.240;9.088;2024-03-23T16:36:35;7.10;99.90
18868;DHT22;9563;49.240;9.088;2024-03-23T16:39:02;6.70;99.90
18868;DHT22;9563;49.240;9.088;2024-03-23T16:41:28;6.50;99.90
18868;DHT22;9563;49.240;9.088;2024-03-23T16:43:54;6.30;99.90
18868;DHT22;9563;49.240;9.088;2024-03-23T16:46:20;6.10;99.90
18868;DHT22;9563;49.240;9.088;2024-03-23T16:48:48;5.50;99.90
18868;DHT22;9563;49.240;9.088;2024-03-23T16:51:14;5.30;99.90
18868;DHT22;9563;49.240;9.088;2024-03-23T16:53:42;5.10;99.90
18868;DHT22;9563;49.240;9.088;2024-03-23T16:56:09;5.00;99.90
18868;DHT22;9563;49.240;9.088;2024-03-23T16:58:37;5.00;99.90
18868;DHT22;9563;49.240;9.088;2024-03-23T17:01:04;5.00;99.90
18868;DHT22;9563;49.240;9.088;2024-03-23T17:03:33;4.90;99.90
18868;DHT22;9563;49.240;9.088;2024-03-23T17:06:02;4.80;99.90
18868;DHT22;9563;49.240;9.088;2024-03-23T17:08:30;4.70;99.90
18868;DHT22;9563;49.240;9.088;2024-03-23T17:10:59;4.60;99.90
18868;DHT22;9563;49.240;9.088;2024-03-23T17:13:26;4.60;99.90
18868;DHT22;9563;49.240;9.088;2024-03-23T17:15:52;4.50;99.90
18868;DHT22;9563;49.240;9.088;2024-03-23T17:18:19;4.60;99.90
18868;DHT22;9563;49.240;9.088;2024-03-23T17:20:45;4.60;99.90
18868;DHT22;9563;49.240;9.088;2024-03-23T17:23:12;4.60;99.90
18868;DHT22;9563;49.240;9.088;2024-03-23T17:25:38;4.60;99.90
18868;DHT22;9563;49.240;9.088;2024-03-23T17:28:06;4.60;99.90
18868;DHT22;9563;49.240;9.088;2024-03-23T17:30:33;4.60;99.90
18868;DHT22;9563;49.240;9.088;2024-03-23T17:33:00;4.60;99.90
18868;DHT22;9563;49.240;9.088;2024-03-23T17:35:25;4.60;99.90
18868;DHT22;9563;49.240;9.088;2024-03-23T17:37:52;4.60;99.90
18868;DHT22;9563;49.240;9.088;2024-03-23T17:40:18;4.60;99.90
18868;DHT22;9563;49.240;9.088;2024-03-23T17:42:45;4.70;99.90
18868;DHT22;9563;49.240;9.088;2024-03-23T17:45:14;4.80;99.90
18868;DHT22;9563;49.240;9.088;2024-03-23T17:47:41;4.90;99.90
18868;DHT22;9563;49.240;9.088;2024-03-23T17:50:08;4.90;99.90
18868;DHT22;9563;49.240;9.088;2024-03-23T17:52:36;4.90;99.90
18868;DHT22;9563;49.240;9.088;2024-03-23T17:55:02;4.90;99.90
18868;DHT22;9563;49.240;9.088;2024-03-23T17:57:29;4.90;99.90
18868;DHT22;9563;49.240;9.088;2024-03-23T17:59:56;4.90;99.90
18868;DHT22;9563;49.240;9.088;2024-03-23T18:02:24;5.00;99.90
18868;DHT22;9563;49.240;9.088;2024-03-23T18:04:50;5.00;99.90
18868;DHT22;9563;49.240;9.088;2024-03-23T18:07:16;5.00;99.90
18868;DHT22;9563;49.240;9.088;2024-03-23T18:09:43;5.00;99.90
18868;DHT22;9563;49.240;9.088;2024-03-23T18:12:10;5.10;99.90
18868;DHT22;9563;49.240;9.088;2024-03-23T18:14:36;5.00;99.90
18868;DHT22;9563;49.240;9.088;2024-03-23T18:17:03;4.90;99.90
18868;DHT22;9563;49.240;9.088;2024-03-23T18:19:30;5.00;99.90
18868;DHT22;9563;49.240;9.088;2024-03-23T18:21:57;4.90;99.90
18868;DHT22;9563;49.240;9.088;2024-03-23T18:24:23;4.90;99.90
18868;DHT22;9563;49.240;9.088;2024-03-23T18:26:50;4.90;99.90
18868;DHT22;9563;49.240;9.088;2024-03-23T18:29:16;4.90;99.90
18868;DHT22;9563;49.240;9.088;2024-03-23T18:31:43;4.90;99.90
18868;DHT22;9563;49.240;9.088;2024-03-23T18:34:09;5.00;99.90
18868;DHT22;9563;49.240;9.088;2024-03-23T18:36:37;5.00;99.90
18868;DHT22;9563;49.240;9.088;2024-03-23T18:39:03;5.00;99.90
18868;DHT22;9563;49.240;9.088;2024-03-23T18:41:31;5.00;99.90
18868;DHT22;9563;49.240;9.088;2024-03-23T18:43:57;5.00;99.90
18868;DHT22;9563;49.240;9.088;2024-03-23T18:46:24;5.00;99.90
18868;DHT22;9563;49.240;9.088;2024-03-23T18:48:50;4.90;99.90
18868;DHT22;9563;49.240;9.088;2024-03-23T18:51:17;4.90;99.90
18868;DHT22;9563;49.240;9.088;2024-03-23T18:53:46;4.90;99.90
18868;DHT22;9563;49.240;9.088;2024-03-23T18:56:14;4.90;99.90
18868;DHT22;9563;49.240;9.088;2024-03-23T18:58:40;4.90;99.90
18868;DHT22;9563;49.240;9.088;2024-03-23T19:01:07;4.90;99.90
18868;DHT22;9563;49.240;9.088;2024-03-23T19:03:33;5.00;99.90
18868;DHT22;9563;49.240;9.088;2024-03-23T19:06:01;5.00;99.90
18868;DHT22;9563;49.240;9.088;2024-03-23T19:08:28;5.00;99.90
18868;DHT22;9563;49.240;9.088;2024-03-23T19:10:57;5.00;99.90
18868;DHT22;9563;49.240;9.088;2024-03-23T19:13:24;5.10;99.90
18868;DHT22;9563;49.240;9.088;2024-03-23T19:15:51;5.10;99.90
18868;DHT22;9563;49.240;9.088;2024-03-23T19:18:18;5.10;99.90
18868;DHT22;9563;49.240;9.088;2024-03-23T19:20:51;5.20;99.90
18868;DHT22;9563;49.240;9.088;2024-03-23T19:23:16;5.10;99.90
18868;DHT22;9563;49.240;9.088;2024-03-23T19:25:43;5.10;99.90
18868;DHT22;9563;49.240;9.088;2024-03-23T19:28:18;5.00;99.90
18868;DHT22;9563;49.240;9.088;2024-03-23T19:30:45;5.00;99.90
18868;DHT22;9563;49.240;9.088;2024-03-23T19:33:10;5.00;99.90
18868;DHT22;9563;49.240;9.088;2024-03-23T19:35:37;5.00;99.90
18868;DHT22;9563;49.240;9.088;2024-03-23T19:38:03;5.00;99.90
18868;DHT22;9563;49.240;9.088;2024-03-23T19:40:30;5.00;99.90
18868;DHT22;9563;49.240;9.088;2024-03-23T19:42:56;5.00;99.90
18868;DHT22;9563;49.240;9.088;2024-03-23T19:45:24;4.90;99.90
18868;DHT22;9563;49.240;9.088;2024-03-23T19:47:50;4.90;99.90
18868;DHT22;9563;49.240;9.088;2024-03-23T19:50:17;4.90;99.90
18868;DHT22;9563;49.240;9.088;2024-03-23T19:52:45;4.80;99.90
18868;DHT22;9563;49.240;9.088;2024-03-23T19:55:14;4.80;99.90
18868;DHT22;9563;49.240;9.088;2024-03-23T19:57:39;4.90;99.90
18868;DHT22;9563;49.240;9.088;2024-03-23T20:00:07;4.80;99.90
18868;DHT22;9563;49.240;9.088;2024-03-23T20:02:35;4.80;99.90
18868;DHT22;9563;49.240;9.088;2024-03-23T20:05:03;4.80;99.90
18868;DHT22;9563;49.240;9.088;2024-03-23T20:07:29;4.80;99.90
18868;DHT22;9563;49.240;9.088;2024-03-23T20:09:56;4.80;99.90
18868;DHT22;9563;49.240;9.088;2024-03-23T20:12:22;4.80;99.90
18868;DHT22;9563;49.240;9.088;2024-03-23T20:14:48;4.80;99.90
18868;DHT22;9563;49.240;9.088;2024-03-23T20:17:14;4.80;99.90
18868;DHT22;9563;49.240;9.088;2024-03-23T20:19:43;4.80;99.90
18868;DHT22;9563;49.240;9.088;2024-03-23T20:22:10;4.70;99.90
18868;DHT22;9563;49.240;9.088;2024-03-23T20:24:37;4.70;99.90
18868;DHT22;9563;49.240;9.088;2024-03-23T20:27:03;4.70;99.90
18868;DHT22;9563;49.240;9.088;2024-03-23T20:29:31;4.70;99.90
18868;DHT22;9563;49.240;9.088;2024-03-23T20:31:57;4.70;99.90
18868;DHT22;9563;49.240;9.088;2024-03-23T20:34:24;4.70;99.90
18868;DHT22;9563;49.240;9.088;2024-03-23T20:36:51;4.70;99.90
18868;DHT22;9563;49.240;9.088;2024-03-23T20:39:18;4.70;99.90
18868;DHT22;9563;49.240;9.088;2024-03-23T20:41:44;4.70;99.90
18868;DHT22;9563;49.240;9.088;2024-03-23T20:44:10;4.80;99.90
18868;DHT22;9563;49.240;9.088;2024-03-23T20:46:36;4.80;99.90
18868;DHT22;9563;49.240;9.088;2024-03-23T20:49:03;4.80;99.90
18868;DHT22;9563;49.240;9.088;2024-03-23T20:51:32;4.70;99.90
18868;DHT22;9563;49.240;9.088;2024-03-23T20:54:01;4.80;99.90
18868;DHT22;9563;49.240;9.088;2024-03-23T20:56:26;4.80;99.90
18868;DHT22;9563;49.240;9.088;2024-03-23T20:58:53;4.80;99.90